KOLS/OLS METAR and TAF weather

Enter ICAO airport designator
Station Type Date Time Source
KOLS METAR 2024/05/28 23:54 UTC NOAA

KOLS 282354Z AUTO 23013G21KT 10SM CLR 34/M14 A3004 RMK AO2 SLP102 T03441139 10361 20328 57003


Station Type Date Time Source
KOLS Decoded METAR 2024/05/28 23:54 UTC NOAA

NOGALES INTERNATIONAL AIRPORT , AZ, United States (KOLS) 31-25N 110-51W 1184M
May 28, 2024 - 07:54 PM EDT / 2024.05.28 2354 UTC
Wind: from the SW (230 degrees) at 15 MPH (13 KT) gusting to 24 MPH (21 KT):0
Visibility: 10 mile(s):0
Sky conditions: clear
Temperature: 93.9 F (34.4 C)
Dew Point: 7.0 F (-13.9 C)
Relative Humidity: 3%
Pressure (altimeter): 30.04 in. Hg (1017 hPa)
Pressure tendency: 0.01 inches (0.3 hPa) lower than three hours ago
ob: KOLS 282354Z AUTO 23013G21KT 10SM CLR 34/M14 A3004 RMK AO2 SLP102 T03441139 10361 20328 57003
cycle: 0

Station Type Date Time Source
KOLS TAF 2024/05/28 18:22 UTC NOAA